createdAt,value
2019-01-03T00:04:00.513Z,3.10
2019-01-03T00:08:32.075Z,3.20
2019-01-03T00:13:07.223Z,3.20
2019-01-03T00:17:43.341Z,3.30
2019-01-03T00:22:17.932Z,3.30
2019-01-03T00:26:56.608Z,3.40
2019-01-03T00:31:26.485Z,3.20
2019-01-03T00:36:00.920Z,3.10
2019-01-03T00:40:31.981Z,3.10
2019-01-03T00:45:18.586Z,3.10
2019-01-03T00:49:53.019Z,3.00
2019-01-03T00:54:32.877Z,3.00
2019-01-03T00:59:02.853Z,2.90
2019-01-03T01:03:33.815Z,2.90
2019-01-03T01:08:23.851Z,2.80
2019-01-03T01:13:07.191Z,2.80
2019-01-03T01:17:36.914Z,2.80
2019-01-03T01:22:06.948Z,2.90
2019-01-03T01:26:37.073Z,2.80
2019-01-03T01:31:09.254Z,2.70
2019-01-03T01:35:59.043Z,2.50
2019-01-03T01:40:30.708Z,2.60
2019-01-03T01:45:02.071Z,2.60
2019-01-03T01:49:31.797Z,2.70
2019-01-03T01:53:54.784Z,2.70
2019-01-03T01:58:44.442Z,2.70
2019-01-03T02:03:14.991Z,2.50
2019-01-03T02:07:45.113Z,2.40
2019-01-03T02:12:15.143Z,2.40
2019-01-03T02:16:46.706Z,2.40
2019-01-03T02:21:16.632Z,2.40
2019-01-03T02:26:03.247Z,2.40
2019-01-03T02:30:35.020Z,2.40
2019-01-03T02:35:24.504Z,2.50
2019-01-03T02:40:08.047Z,2.50
2019-01-03T02:44:48.011Z,2.50
2019-01-03T02:49:12.537Z,2.30
2019-01-03T02:53:53.134Z,2.30
2019-01-03T02:58:30.018Z,2.40
2019-01-03T03:03:01.331Z,2.50
2019-01-03T03:07:31.566Z,2.50
2019-01-03T03:12:16.210Z,2.50
2019-01-03T03:16:46.264Z,2.40
2019-01-03T03:21:26.225Z,2.30
2019-01-03T03:26:12.946Z,2.20
2019-01-03T03:30:42.770Z,2.30
2019-01-03T03:35:17.099Z,2.40
2019-01-03T03:39:57.467Z,2.40
2019-01-03T03:44:26.881Z,2.30
2019-01-03T03:48:58.244Z,2.20
2019-01-03T03:53:28.272Z,2.10
2019-01-03T03:57:58.403Z,2.00
2019-01-03T04:02:28.634Z,2.20
2019-01-03T04:07:06.139Z,2.30
2019-01-03T04:11:40.057Z,2.30
2019-01-03T04:16:09.682Z,2.30
2019-01-03T04:20:39.806Z,2.30
2019-01-03T04:25:07.786Z,2.20
2019-01-03T04:29:37.611Z,2.20
2019-01-03T04:34:05.276Z,2.20
2019-01-03T04:38:36.828Z,2.20
2019-01-03T04:43:17.272Z,2.30
2019-01-03T04:47:51.549Z,2.40
2019-01-03T04:52:25.365Z,2.40
2019-01-03T04:56:54.883Z,2.30
2019-01-03T05:01:59.214Z,2.20
2019-01-03T05:06:36.614Z,2.30
2019-01-03T05:11:06.234Z,2.30
2019-01-03T05:15:49.676Z,2.30
2019-01-03T05:20:19.501Z,2.40
2019-01-03T05:24:49.529Z,2.30
2019-01-03T05:29:18.944Z,2.30
2019-01-03T05:33:52.665Z,2.20
2019-01-03T05:38:12.854Z,2.30
2019-01-03T05:42:49.910Z,2.50
2019-01-03T05:47:20.079Z,2.50
2019-01-03T05:51:50.416Z,2.60
2019-01-03T05:56:21.466Z,2.70
2019-01-03T06:01:04.223Z,2.60
2019-01-03T06:05:35.965Z,2.60
2019-01-03T06:10:10.951Z,2.70
2019-01-03T06:14:40.630Z,2.60
2019-01-03T06:19:10.347Z,2.60
2019-01-03T06:23:40.070Z,2.60
2019-01-03T06:28:21.464Z,2.60
2019-01-03T06:33:10.950Z,2.60
2019-01-03T06:37:48.144Z,2.70
2019-01-03T06:42:18.274Z,2.50
2019-01-03T06:46:48.200Z,2.50
2019-01-03T06:51:28.470Z,2.50
2019-01-03T06:56:00.037Z,2.60
2019-01-03T07:00:31.086Z,2.70
2019-01-03T07:05:16.287Z,2.70
2019-01-03T07:09:50.805Z,2.80
2019-01-03T07:14:20.525Z,2.70
2019-01-03T07:19:02.079Z,2.70
2019-01-03T07:23:49.050Z,2.60
2019-01-03T07:28:18.671Z,2.80
2019-01-03T07:32:48.847Z,2.90
2019-01-03T07:37:19.339Z,2.90
2019-01-03T07:41:54.079Z,2.80
2019-01-03T07:46:41.105Z,2.80
2019-01-03T07:51:21.680Z,2.70
2019-01-03T07:55:59.286Z,2.70
2019-01-03T08:00:37.814Z,2.70
2019-01-03T08:05:09.479Z,2.80
2019-01-03T08:09:39.406Z,2.80
2019-01-03T08:14:22.750Z,2.80
2019-01-03T08:18:53.901Z,2.80
2019-01-03T08:23:25.261Z,2.90
2019-01-03T08:27:54.878Z,2.90
2019-01-03T08:32:24.236Z,2.90
2019-01-03T08:36:55.550Z,3.00
2019-01-03T08:41:27.014Z,3.10
2019-01-03T08:46:04.108Z,3.20
2019-01-03T08:50:35.570Z,3.30
2019-01-03T08:55:15.837Z,3.20
2019-01-03T08:59:47.403Z,3.10
2019-01-03T09:04:17.330Z,3.20
2019-01-03T09:09:04.152Z,3.30
2019-01-03T09:13:35.610Z,3.50
2019-01-03T09:18:09.837Z,3.70
2019-01-03T09:22:40.480Z,3.80
2019-01-03T09:27:12.450Z,3.90
2019-01-03T09:31:55.795Z,4.00
2019-01-03T09:36:30.126Z,4.20
2019-01-03T09:41:05.732Z,4.30
2019-01-03T09:45:18.584Z,4.40
2019-01-03T09:49:31.468Z,4.60
2019-01-03T09:53:44.032Z,4.70
2019-01-03T09:57:56.428Z,4.80
2019-01-03T10:02:09.195Z,4.90
2019-01-03T10:06:21.821Z,5.10
2019-01-03T10:10:34.764Z,5.30
2019-01-03T10:14:47.222Z,5.50
2019-01-03T10:19:00.099Z,5.70
2019-01-03T10:23:12.681Z,5.90
2019-01-03T10:27:25.542Z,6.10
2019-01-03T10:31:38.128Z,6.30
2019-01-03T10:35:50.982Z,6.40
2019-01-03T10:40:03.700Z,6.50
2019-01-03T10:44:16.147Z,6.50
2019-01-03T10:48:28.946Z,6.70
2019-01-03T10:52:41.230Z,6.80
2019-01-03T10:56:54.084Z,6.90
2019-01-03T11:01:07.837Z,6.90
2019-01-03T11:05:20.540Z,7.10
2019-01-03T11:09:33.290Z,7.40
2019-01-03T11:13:45.993Z,7.60
2019-01-03T11:17:58.856Z,7.90
2019-01-03T11:22:12.539Z,8.00
2019-01-03T11:26:25.244Z,8.00
2019-01-03T11:30:38.129Z,8.10
2019-01-03T11:34:50.533Z,8.20
2019-01-03T11:39:03.510Z,8.30
2019-01-03T11:43:16.039Z,8.20
2019-01-03T11:47:28.975Z,8.10
2019-01-03T11:51:41.380Z,8.20
2019-01-03T11:55:54.379Z,8.40
2019-01-03T12:00:08.171Z,8.40
2019-01-03T12:04:20.721Z,8.50
2019-01-03T12:08:33.697Z,8.40
2019-01-03T12:12:46.320Z,8.40
2019-01-03T12:16:59.236Z,8.30
2019-01-03T12:21:11.790Z,8.20
2019-01-03T12:25:24.541Z,8.20
2019-01-03T12:29:38.132Z,8.10
2019-01-03T12:33:50.552Z,8.10
2019-01-03T12:38:02.873Z,8.10
2019-01-03T12:42:15.831Z,8.00
2019-01-03T12:46:28.309Z,8.00
2019-01-03T12:50:41.257Z,8.10
2019-01-03T12:54:53.950Z,8.10
2019-01-03T12:59:06.927Z,8.10
2019-01-03T13:03:19.510Z,8.10
2019-01-03T13:07:33.254Z,8.10
2019-01-03T13:11:45.929Z,8.30
2019-01-03T13:15:58.691Z,8.20
2019-01-03T13:20:12.244Z,8.30
2019-01-03T13:24:25.216Z,8.20
2019-01-03T13:28:37.895Z,8.30
2019-01-03T13:32:50.205Z,8.40
2019-01-03T13:37:03.751Z,8.40
2019-01-03T13:41:17.309Z,8.30
2019-01-03T13:45:30.100Z,8.00
2019-01-03T13:49:43.807Z,7.90
2019-01-03T13:53:56.452Z,8.00
2019-01-03T13:58:09.248Z,8.00
2019-01-03T14:02:23.008Z,8.00
2019-01-03T14:06:35.695Z,7.90
2019-01-03T14:10:48.642Z,7.90
2019-01-03T14:15:01.200Z,7.90
2019-01-03T14:19:14.100Z,8.00
2019-01-03T14:23:28.025Z,8.00
2019-01-03T14:27:40.519Z,7.90
2019-01-03T14:31:53.379Z,7.70
2019-01-03T14:36:07.088Z,7.70
2019-01-03T14:40:19.516Z,7.80
2019-01-03T14:44:32.551Z,7.70
2019-01-03T14:48:45.165Z,7.70
2019-01-03T14:52:58.083Z,7.70
2019-01-03T14:57:10.799Z,7.70
2019-01-03T15:01:23.780Z,7.60
2019-01-03T15:05:36.282Z,7.60
2019-01-03T15:09:49.183Z,7.50
2019-01-03T15:14:01.683Z,7.30
2019-01-03T15:18:14.571Z,7.00
2019-01-03T15:22:28.255Z,6.90
2019-01-03T15:26:40.652Z,6.90
2019-01-03T15:30:53.557Z,6.90
2019-01-03T15:35:06.124Z,6.90
2019-01-03T15:39:18.999Z,6.90
2019-01-03T15:43:31.572Z,6.80
2019-01-03T15:47:44.092Z,6.80
2019-01-03T15:51:56.878Z,6.60
2019-01-03T15:56:09.544Z,6.40
2019-01-03T16:00:22.408Z,6.30
2019-01-03T16:04:34.881Z,6.20
2019-01-03T16:08:47.903Z,6.30
2019-01-03T16:13:00.528Z,6.30
2019-01-03T16:17:13.413Z,6.20
2019-01-03T16:21:25.984Z,6.10
2019-01-03T16:25:38.848Z,6.00
2019-01-03T16:29:52.672Z,5.70
2019-01-03T16:34:05.164Z,5.50
2019-01-03T16:38:18.045Z,5.40
2019-01-03T16:42:42.234Z,5.30
2019-01-03T16:46:54.934Z,5.30
2019-01-03T16:51:07.883Z,5.20
2019-01-03T16:55:20.456Z,5.20
2019-01-03T16:59:33.402Z,5.00
2019-01-03T17:03:45.905Z,4.70
2019-01-03T17:07:58.775Z,4.40
2019-01-03T17:12:11.540Z,4.40
2019-01-03T17:16:24.331Z,4.40
2019-01-03T17:20:37.089Z,4.30
2019-01-03T17:24:49.518Z,4.10
2019-01-03T17:29:02.388Z,4.10
2019-01-03T17:33:16.158Z,4.10
2019-01-03T17:37:28.622Z,3.90
2019-01-03T17:41:41.437Z,3.70
2019-01-03T17:45:53.886Z,3.70
2019-01-03T17:50:08.027Z,3.70
2019-01-03T17:54:20.535Z,3.70
2019-01-03T17:58:32.983Z,3.60
2019-01-03T18:02:45.777Z,3.70
2019-01-03T18:06:58.279Z,3.60
2019-01-03T18:11:11.297Z,3.30
2019-01-03T18:15:23.839Z,3.10
2019-01-03T18:19:37.363Z,3.10
2019-01-03T18:23:50.255Z,3.10
2019-01-03T18:28:02.811Z,3.10
2019-01-03T18:32:16.356Z,3.10
2019-01-03T18:36:28.842Z,3.20
2019-01-03T18:40:42.805Z,3.10
2019-01-03T18:44:55.448Z,2.90
2019-01-03T18:49:08.310Z,2.80
2019-01-03T18:53:20.991Z,2.70
2019-01-03T18:57:33.424Z,2.80
2019-01-03T19:01:46.185Z,2.90
2019-01-03T19:05:58.820Z,2.90
2019-01-03T19:10:14.025Z,2.90
2019-01-03T19:14:27.124Z,2.90
2019-01-03T19:18:39.683Z,2.80
2019-01-03T19:22:52.561Z,2.60
2019-01-03T19:27:05.332Z,2.60
2019-01-03T19:31:17.751Z,2.70
2019-01-03T19:35:30.627Z,2.80
2019-01-03T19:39:43.272Z,2.80
2019-01-03T19:43:56.271Z,2.80
2019-01-03T19:48:08.946Z,2.70
2019-01-03T19:52:21.491Z,2.60
2019-01-03T19:56:35.456Z,2.50
2019-01-03T20:00:47.943Z,2.40
2019-01-03T20:05:00.352Z,2.50
2019-01-03T20:09:13.083Z,2.60
2019-01-03T20:13:25.597Z,2.70
2019-01-03T20:17:38.359Z,2.60
2019-01-03T20:21:51.960Z,2.60
2019-01-03T20:26:04.381Z,2.50
2019-01-03T20:30:17.244Z,2.40
2019-01-03T20:34:30.947Z,2.30
2019-01-03T20:38:43.434Z,2.30
2019-01-03T20:42:56.245Z,2.50
2019-01-03T20:47:08.907Z,2.50
2019-01-03T20:51:22.063Z,2.50
2019-01-03T20:55:34.560Z,2.40
2019-01-03T20:59:47.335Z,2.20
2019-01-03T21:03:59.911Z,2.20
2019-01-03T21:08:12.783Z,2.10
2019-01-03T21:12:25.419Z,2.00
2019-01-03T21:16:38.133Z,1.90
2019-01-03T21:20:50.994Z,2.00
2019-01-03T21:25:03.980Z,2.10
2019-01-03T21:29:16.551Z,2.10
2019-01-03T21:33:28.968Z,2.10
2019-01-03T21:37:41.740Z,2.20
2019-01-03T21:41:54.373Z,2.10
2019-01-03T21:46:07.290Z,2.10
2019-01-03T21:50:19.961Z,2.00
2019-01-03T21:54:32.931Z,2.10
2019-01-03T21:58:45.514Z,2.10
2019-01-03T22:02:58.379Z,2.20
2019-01-03T22:07:10.959Z,2.20
2019-01-03T22:11:23.928Z,2.20
2019-01-03T22:15:36.465Z,2.00
2019-01-03T22:19:49.369Z,1.80
2019-01-03T22:24:01.739Z,1.70
2019-01-03T22:28:14.624Z,1.80
2019-01-03T22:32:27.205Z,1.80
2019-01-03T22:36:40.052Z,1.90
2019-01-03T22:40:53.818Z,2.00
2019-01-03T22:45:06.570Z,2.10
2019-01-03T22:49:19.356Z,2.00
2019-01-03T22:53:32.028Z,2.00
2019-01-03T22:57:44.904Z,2.00
2019-01-03T23:01:58.696Z,1.90
2019-01-03T23:06:11.126Z,1.90
2019-01-03T23:10:23.987Z,2.00
2019-01-03T23:14:38.423Z,2.10
2019-01-03T23:18:51.226Z,2.10
2019-01-03T23:23:03.671Z,2.20
2019-01-03T23:27:16.514Z,2.20
2019-01-03T23:31:30.216Z,2.10
2019-01-03T23:35:42.636Z,1.90
2019-01-03T23:39:55.512Z,1.80
2019-01-03T23:44:08.078Z,1.90
2019-01-03T23:48:20.568Z,2.00
2019-01-03T23:52:33.415Z,2.10
2019-01-03T23:56:45.767Z,2.10
